Time;durP1;ratioP1;P1;durP2;ratioP2;P2;SDS_P1;SDS_P2;PMS_P1;PMS_P2;Temp;Humidity;BMP_temperature;BMP_pressure;BME280_temperature;BME280_humidity;BME280_pressure;Samples;Min_cycle;Max_cycle;Signal;HPM_P1;HPM_P2
2023/06/30 00:01:39;;;;;;;1.02;0.82;;;;;;;16.46;100.00;99677.84;6136106;23;20096;-96
2023/06/30 00:04:12;;;;;;;0.70;0.63;;;;;;;16.50;100.00;99684.75;6186585;23;19993;-96
2023/06/30 00:06:42;;;;;;;1.23;1.23;;;;;;;16.20;100.00;99646.88;6161978;23;20020;-96
2023/06/30 00:09:08;;;;;;;0.63;0.60;;;;;;;16.49;100.00;99688.81;6185330;23;20013;-96
2023/06/30 00:11:36;;;;;;;0.77;0.77;;;;;;;16.51;100.00;99689.09;6185028;23;20000;-95
2023/06/30 00:14:01;;;;;;;0.38;0.38;;;;;;;16.18;100.00;99638.19;6211423;23;20008;-96
2023/06/30 00:16:27;;;;;;;0.50;0.50;;;;;;;16.16;100.00;99632.31;6186512;23;20017;-96
2023/06/30 00:18:55;;;;;;;0.35;0.35;;;;;;;16.07;100.00;99627.59;6185887;23;20013;-95
2023/06/30 00:21:21;;;;;;;0.40;0.40;;;;;;;16.10;100.00;99631.44;6160859;23;20009;-96
2023/06/30 00:23:47;;;;;;;1.75;1.65;;;;;;;16.31;100.00;99663.84;6117918;23;20395;-87
2023/06/30 00:26:12;;;;;;;0.68;0.68;;;;;;;16.32;100.00;99671.00;6130862;23;20047;-87
2023/06/30 00:28:38;;;;;;;0.20;0.20;;;;;;;16.13;100.00;99638.91;6130048;23;20013;-87
2023/06/30 00:31:03;;;;;;;0.75;0.63;;;;;;;16.31;100.00;99658.25;6130977;23;20016;-87
2023/06/30 00:33:29;;;;;;;0.40;0.40;;;;;;;16.17;100.00;99647.88;6130114;23;20013;-87
2023/06/30 00:35:54;;;;;;;0.50;0.50;;;;;;;16.06;100.00;99633.66;6154920;23;20012;-87
2023/06/30 00:38:20;;;;;;;0.50;0.40;;;;;;;16.34;100.00;99674.06;6181385;23;20511;-87
2023/06/30 00:40:47;;;;;;;0.08;0.08;;;;;;;16.33;100.00;99667.72;6168766;23;20005;-96
2023/06/30 00:43:13;;;;;;;0.50;0.47;;;;;;;16.25;100.00;99660.97;6187109;23;20062;-95
2023/06/30 00:45:38;;;;;;;0.20;0.20;;;;;;;16.32;100.00;99673.78;6161445;23;20003;-96
2023/06/30 00:48:04;;;;;;;0.20;0.20;;;;;;;16.31;100.00;99670.22;6210747;23;20030;-96
2023/06/30 00:50:30;;;;;;;0.90;0.55;;;;;;;16.27;100.00;99664.06;6211003;23;20024;-96
2023/06/30 00:52:57;;;;;;;1.02;0.57;;;;;;;16.20;100.00;99658.84;6157780;23;20001;-96
2023/06/30 00:55:25;;;;;;;0.73;0.73;;;;;;;16.24;100.00;99669.84;6179382;23;20013;-96
2023/06/30 00:57:50;;;;;;;0.50;0.50;;;;;;;16.21;100.00;99666.00;6177833;23;20091;-96
2023/06/30 01:00:17;;;;;;;1.38;0.70;;;;;;;16.19;100.00;99662.91;6153571;23;20013;-96
2023/06/30 01:03:03;;;;;;;3.50;1.65;;;;;;;16.20;100.00;99666.47;6178004;23;20032;-96
2023/06/30 01:05:42;;;;;;;0.57;0.57;;;;;;;16.17;100.00;99653.47;6154813;23;20352;-96
2023/06/30 01:08:13;;;;;;;0.80;0.45;;;;;;;16.13;100.00;99670.44;6180540;23;20013;-96
2023/06/30 01:10:39;;;;;;;1.05;1.05;;;;;;;15.96;100.00;99643.44;6157072;23;20043;-87
2023/06/30 01:13:05;;;;;;;0.17;0.17;;;;;;;15.91;100.00;99635.72;6105693;23;20013;-87
2023/06/30 01:15:32;;;;;;;0.43;0.38;;;;;;;15.79;100.00;99624.34;6155584;23;20017;-87
2023/06/30 01:17:59;;;;;;;1.58;1.13;;;;;;;15.76;100.00;99630.91;6130744;23;20013;-86
2023/06/30 01:20:32;;;;;;;1.13;1.02;;;;;;;15.85;100.00;99641.25;6130130;23;20100;-86
2023/06/30 01:23:07;;;;;;;0.28;0.28;;;;;;;15.89;100.00;99652.22;6106543;23;20009;-87
2023/06/30 01:25:33;;;;;;;0.40;0.30;;;;;;;15.74;100.00;99633.41;6181092;23;20071;-87
2023/06/30 01:27:59;;;;;;;0.88;0.85;;;;;;;15.53;100.00;99598.22;6129912;23;20005;-87
2023/06/30 01:30:29;;;;;;;0.40;0.40;;;;;;;15.74;100.00;99639.00;6106094;23;20067;-87
2023/06/30 01:32:55;;;;;;;0.50;0.45;;;;;;;15.54;100.00;99596.19;6130871;23;20075;-87
2023/06/30 01:35:22;;;;;;;0.73;0.45;;;;;;;15.64;100.00;99612.41;6129811;23;20021;-87
2023/06/30 01:37:47;;;;;;;0.57;0.57;;;;;;;15.71;100.00;99634.38;6129669;23;20424;-87
2023/06/30 01:40:13;;;;;;;0.20;0.20;;;;;;;15.59;100.00;99615.88;6105703;23;20092;-87
2023/06/30 01:42:39;;;;;;;0.88;0.65;;;;;;;15.69;100.00;99634.06;6154137;23;20013;-87
2023/06/30 01:45:06;;;;;;;2.53;1.17;;;;;;;15.65;100.00;99639.09;6105884;23;20493;-87
2023/06/30 01:47:31;;;;;;;0.20;0.20;;;;;;;15.45;100.00;99618.63;6104872;23;20376;-88
2023/06/30 01:50:00;;;;;;;0.22;0.22;;;;;;;15.37;100.00;99604.25;6154064;23;20021;-95
2023/06/30 01:52:25;;;;;;;0.13;0.13;;;;;;;15.25;100.00;99585.72;6161961;23;20016;-96
2023/06/30 01:54:54;;;;;;;0.10;0.10;;;;;;;15.23;100.00;99593.81;6187192;23;20005;-96
2023/06/30 02:50:37;;;;;;;0.25;0.25;;;;;;;15.14;100.00;99627.41;6174759;23;20052;-96
2023/06/30 02:53:03;;;;;;;0.40;0.40;;;;;;;15.13;100.00;99623.06;6149971;23;20016;-96
2023/06/30 02:55:32;;;;;;;1.10;0.80;;;;;;;14.79;100.00;99572.16;6126281;23;20014;-96
2023/06/30 02:57:59;;;;;;;0.38;0.38;;;;;;;14.90;100.00;99583.53;6147954;23;20100;-96
2023/06/30 03:00:27;;;;;;;0.47;0.47;;;;;;;14.79;100.00;99572.16;6124266;23;20009;-95
2023/06/30 03:02:52;;;;;;;1.27;1.15;;;;;;;14.76;100.00;99564.72;6124638;23;20443;-87
2023/06/30 03:05:20;;;;;;;0.60;0.60;;;;;;;14.99;100.00;99598.69;6071778;23;20017;-87
2023/06/30 03:07:46;;;;;;;1.58;0.80;;;;;;;14.93;100.00;99582.59;6070270;23;20018;-87
2023/06/30 03:10:12;;;;;;;0.35;0.35;;;;;;;14.97;100.00;99587.22;6047598;23;20109;-87
2023/06/30 03:12:37;;;;;;;0.63;0.55;;;;;;;14.90;100.00;99577.97;6070951;23;20005;-87
2023/06/30 03:15:04;;;;;;;0.80;0.75;;;;;;;14.99;100.00;99587.50;6077439;23;20021;-96
2023/06/30 03:17:32;;;;;;;0.30;0.30;;;;;;;15.07;100.00;99608.25;6098123;23;20006;-96
2023/06/30 03:19:58;;;;;;;0.55;0.55;;;;;;;15.03;100.00;99593.69;6099701;23;20074;-96
2023/06/30 03:22:23;;;;;;;0.80;0.80;;;;;;;15.06;100.00;99601.09;6100861;23;20014;-96
2023/06/30 03:24:52;;;;;;;1.13;0.60;;;;;;;14.79;100.00;99563.00;6100219;23;20020;-96
2023/06/30 03:27:19;;;;;;;0.75;0.75;;;;;;;14.72;100.00;99539.00;6123344;23;20037;-96
2023/06/30 03:29:45;;;;;;;0.52;0.40;;;;;;;15.11;100.00;99604.03;6126122;23;20022;-96
2023/06/30 03:32:11;;;;;;;0.43;0.43;;;;;;;15.11;100.00;99597.66;6100201;23;20012;-96
2023/06/30 03:34:37;;;;;;;0.25;0.25;;;;;;;14.87;100.00;99564.19;6123767;23;20014;-96
2023/06/30 03:37:03;;;;;;;0.45;0.43;;;;;;;15.05;100.00;99605.91;6122497;23;20017;-96
2023/06/30 03:39:29;;;;;;;1.80;1.10;;;;;;;14.74;100.00;99544.13;6103448;23;20014;-96
2023/06/30 03:41:54;;;;;;;4.10;1.13;;;;;;;14.74;100.00;99558.84;6076563;23;20010;-95
2023/06/30 03:44:20;;;;;;;0.47;0.47;;;;;;;15.11;100.00;99609.59;6075318;23;20010;-96
2023/06/30 03:46:46;;;;;;;1.00;0.60;;;;;;;14.76;100.00;99550.75;6102954;23;20017;-96
2023/06/30 03:49:11;;;;;;;0.77;0.73;;;;;;;14.87;100.00;99567.75;6088684;23;20077;-96
2023/06/30 03:51:39;;;;;;;3.50;1.38;;;;;;;14.96;100.00;99552.16;6107657;23;20014;-96
2023/06/30 03:54:06;;;;;;;0.35;0.35;;;;;;;15.00;100.00;99558.34;6082282;23;20105;-96
2023/06/30 03:56:32;;;;;;;0.35;0.35;;;;;;;14.89;100.00;99531.72;6081795;23;20100;-96
2023/06/30 03:58:57;;;;;;;0.40;0.40;;;;;;;14.81;100.00;99527.75;6129063;23;20041;-96
2023/06/30 04:01:23;;;;;;;0.40;0.40;;;;;;;15.08;100.00;99565.88;6101430;23;20010;-96
2023/06/30 04:03:51;;;;;;;0.90;0.85;;;;;;;14.99;100.00;99540.81;6125966;23;20021;-96
2023/06/30 04:06:17;;;;;;;0.50;0.50;;;;;;;15.10;100.00;99543.03;6125126;23;20033;-96
2023/06/30 04:08:44;;;;;;;0.77;0.47;;;;;;;15.22;100.00;99553.94;6127141;23;20073;-96
2023/06/30 04:11:09;;;;;;;0.73;0.73;;;;;;;15.36;100.00;99571.97;6102427;23;20013;-96
2023/06/30 04:13:35;;;;;;;0.30;0.30;;;;;;;15.54;100.00;99598.97;6101568;23;20371;-96
2023/06/30 04:16:01;;;;;;;0.65;0.50;;;;;;;15.47;100.00;99568.59;6125632;23;20096;-96
2023/06/30 04:18:27;;;;;;;0.32;0.32;;;;;;;15.43;100.00;99571.59;6101961;23;20105;-96
2023/06/30 04:20:53;;;;;;;1.42;0.90;;;;;;;15.27;100.00;99528.13;6125318;23;20571;-96
2023/06/30 04:23:18;;;;;;;0.90;0.40;;;;;;;15.66;100.00;99587.50;6126073;23;20014;-96
2023/06/30 04:25:44;;;;;;;0.50;0.50;;;;;;;15.43;100.00;99540.84;6126269;23;20038;-95
2023/06/30 04:28:09;;;;;;;0.98;0.98;;;;;;;15.57;100.00;99556.09;6126687;23;20018;-96
2023/06/30 04:30:35;;;;;;;0.75;0.50;;;;;;;15.59;100.00;99554.38;6127025;23;20002;-96
2023/06/30 04:33:01;;;;;;;0.65;0.65;;;;;;;15.72;100.00;99571.63;6127312;23;20113;-96
2023/06/30 04:35:26;;;;;;;2.53;1.05;;;;;;;15.69;100.00;99558.59;6102752;23;20010;-96
2023/06/30 04:37:52;;;;;;;0.93;0.65;;;;;;;15.73;100.00;99536.78;6128392;23;20017;-96
2023/06/30 04:40:18;;;;;;;1.95;1.40;;;;;;;15.85;100.00;99562.94;6103871;23;20052;-96
2023/06/30 04:42:44;;;;;;;1.13;1.02;;;;;;;15.96;100.00;99587.50;6121205;23;20013;-87
2023/06/30 04:45:10;;;;;;;0.68;0.68;;;;;;;15.88;100.00;99564.75;6096589;23;20016;-88
2023/06/30 04:47:36;;;;;;;0.73;0.50;;;;;;;16.01;100.00;99581.22;6120644;23;20021;-87
2023/06/30 04:50:01;;;;;;;0.17;0.17;;;;;;;16.11;100.00;99589.00;6120711;23;20121;-87
2023/06/30 04:52:27;;;;;;;0.52;0.52;;;;;;;16.15;100.00;99589.56;6120006;23;20045;-87
2023/06/30 04:54:55;;;;;;;0.43;0.35;;;;;;;16.13;100.00;99575.31;6096386;23;20025;-87
2023/06/30 04:57:21;;;;;;;1.35;1.08;;;;;;;16.32;100.00;99587.03;6072252;23;20466;-86
2023/06/30 04:59:46;;;;;;;0.82;0.75;;;;;;;16.34;100.00;99578.91;6072576;23;20084;-86
2023/06/30 05:02:12;;;;;;;0.65;0.50;;;;;;;16.31;100.00;99566.66;6095545;23;20006;-88
2023/06/30 05:04:38;;;;;;;2.05;1.08;;;;;;;16.51;100.00;99581.94;6072205;23;20017;-86
2023/06/30 05:07:03;;;;;;;0.63;0.63;;;;;;;16.52;100.00;99569.47;6071642;23;20068;-87
2023/06/30 05:09:29;;;;;;;0.50;0.50;;;;;;;16.39;100.00;99530.63;6072031;23;20408;-87
2023/06/30 05:11:54;;;;;;;0.73;0.38;;;;;;;16.74;100.00;99573.34;6120482;23;20041;-87
2023/06/30 05:14:20;;;;;;;0.63;0.60;;;;;;;16.89;100.00;99583.72;6096133;23;20325;-88
2023/06/30 05:16:46;;;;;;;1.00;0.90;;;;;;;16.91;100.00;99578.41;6096235;23;20056;-86
2023/06/30 05:19:12;;;;;;;0.57;0.57;;;;;;;16.97;100.00;99568.81;6130408;23;20048;-95
2023/06/30 05:21:38;;;;;;;1.02;0.65;;;;;;;16.77;100.00;99533.19;6116340;23;20006;-96
2023/06/30 05:24:04;;;;;;;0.38;0.38;;;;;;;16.97;100.00;99545.63;6100310;23;20045;-96
2023/06/30 05:26:30;;;;;;;0.40;0.40;;;;;;;16.96;100.00;99532.88;6123718;23;20017;-96
2023/06/30 05:28:59;;;;;;;0.35;0.32;;;;;;;17.12;100.00;99537.88;6147954;23;20006;-96
2023/06/30 05:31:25;;;;;;;1.85;1.20;;;;;;;17.50;100.00;99590.78;6149435;23;20026;-96
2023/06/30 05:33:53;;;;;;;0.85;0.57;;;;;;;17.31;100.00;99535.53;6149687;23;19997;-96
2023/06/30 05:36:19;;;;;;;1.08;0.68;;;;;;;17.45;100.00;99523.44;6125998;23;20010;-96
2023/06/30 05:38:45;;;;;;;0.65;0.50;;;;;;;17.60;100.00;99527.66;6102841;23;20020;-96
2023/06/30 05:41:13;;;;;;;0.77;0.50;;;;;;;17.79;100.00;99544.16;6151231;23;20010;-96
2023/06/30 05:43:40;;;;;;;0.63;0.50;;;;;;;17.89;100.00;99528.66;6151955;23;20033;-96
2023/06/30 05:46:06;;;;;;;0.47;0.35;;;;;;;18.01;100.00;99533.84;6152326;23;20033;-95
2023/06/30 05:56:44;;;;;;;0.28;0.28;;;;;;;19.25;100.00;99566.88;6151083;23;20095;-87
2023/06/30 05:59:10;;;;;;;2.17;1.40;;;;;;;19.48;100.00;99574.88;6101093;23;20495;-88
2023/06/30 06:01:39;;;;;;;0.73;0.73;;;;;;;19.77;100.00;99572.84;6076834;23;20028;-88
2023/06/30 06:04:08;;;;;;;0.82;0.60;;;;;;;20.06;100.00;99572.28;6076907;23;20099;-88
2023/06/30 06:06:34;;;;;;;0.68;0.65;;;;;;;20.24;100.00;99566.13;6075891;23;20013;-87
2023/06/30 06:08:59;;;;;;;0.43;0.35;;;;;;;20.38;100.00;99559.47;6124881;23;20044;-88
2023/06/30 06:11:25;;;;;;;0.40;0.30;;;;;;;20.61;100.00;99570.69;6100799;23;20048;-87
2023/06/30 06:13:50;;;;;;;0.50;0.50;;;;;;;20.41;100.00;99530.28;6124723;23;20001;-88
2023/06/30 06:16:16;;;;;;;2.08;1.17;;;;;;;20.79;100.00;99570.09;6101085;23;20076;-88
2023/06/30 06:18:42;;;;;;;1.85;1.00;;;;;;;20.87;100.00;99532.38;6100393;23;20025;-88
2023/06/30 06:21:07;;;;;;;1.38;1.27;;;;;;;21.04;100.00;99546.41;6124517;23;20005;-88
2023/06/30 06:23:33;;;;;;;0.45;0.45;;;;;;;21.17;100.00;99543.81;6124883;23;20500;-87
2023/06/30 06:26:00;;;;;;;0.98;0.47;;;;;;;21.43;100.00;99570.84;6100717;23;20013;-87
2023/06/30 06:28:25;;;;;;;0.38;0.38;;;;;;;21.39;100.00;99549.28;6124159;23;20037;-88
2023/06/30 06:30:51;;;;;;;1.80;1.52;;;;;;;21.60;100.00;99538.38;6125190;23;20001;-88
2023/06/30 06:33:16;;;;;;;0.70;0.40;;;;;;;21.90;100.00;99563.78;6150859;23;20017;-88
2023/06/30 06:35:42;;;;;;;0.52;0.52;;;;;;;21.90;100.00;99558.16;6076044;23;20104;-87
2023/06/30 06:38:08;;;;;;;3.40;0.77;;;;;;;21.91;100.00;99548.38;6151091;23;20088;-88
2023/06/30 06:40:33;;;;;;;0.40;0.40;;;;;;;22.20;100.00;99536.31;6125915;23;20022;-87
2023/06/30 06:42:59;;;;;;;0.82;0.68;;;;;;;22.23;99.41;99555.03;6124488;23;20065;-88
2023/06/30 06:45:27;;;;;;;0.40;0.40;;;;;;;22.42;100.00;99552.25;6125624;23;20013;-88
2023/06/30 06:48:22;;;;;;;0.60;0.38;;;;;;;22.77;100.00;99554.97;6124860;23;20037;-88
2023/06/30 06:50:58;;;;;;;0.43;0.35;;;;;;;22.85;93.66;99543.81;6139779;23;20017;-96
2023/06/30 06:53:26;;;;;;;0.30;0.30;;;;;;;22.95;95.61;99550.63;6104897;23;20041;-87
2023/06/30 06:55:53;;;;;;;1.25;1.15;;;;;;;23.17;91.21;99555.22;6071383;23;20018;-87
2023/06/30 06:58:18;;;;;;;1.00;0.70;;;;;;;23.19;87.68;99544.91;6095310;23;20022;-87
2023/06/30 07:00:45;;;;;;;0.38;0.38;;;;;;;23.14;87.28;99523.09;6095553;23;20440;-89
2023/06/30 07:03:11;;;;;;;5.80;1.85;;;;;;;23.56;86.61;99527.13;6121247;23;20404;-88
2023/06/30 07:05:40;;;;;;;0.20;0.20;;;;;;;23.67;85.03;99521.28;6121305;23;20001;-88
2023/06/30 07:08:08;;;;;;;0.55;0.55;;;;;;;23.88;82.80;99507.28;6074218;23;20022;-88
2023/06/30 07:10:34;;;;;;;0.40;0.40;;;;;;;24.23;81.44;99519.53;6097969;23;20028;-88
2023/06/30 07:13:01;;;;;;;0.88;0.70;;;;;;;24.13;72.67;99507.88;6096910;23;20018;-88
2023/06/30 07:15:27;;;;;;;2.20;1.25;;;;;;;24.23;73.55;99525.22;6097302;23;20018;-88
2023/06/30 07:17:53;;;;;;;0.77;0.77;;;;;;;24.55;74.90;99523.03;6121955;23;20017;-88
2023/06/30 07:20:19;;;;;;;1.15;0.93;;;;;;;24.57;72.45;99532.53;6113888;23;20018;-96
2023/06/30 07:22:47;;;;;;;0.38;0.38;;;;;;;24.63;74.39;99523.16;6119665;23;20017;-96
2023/06/30 07:25:13;;;;;;;0.80;0.77;;;;;;;24.75;70.75;99502.50;6140698;23;20014;-96
2023/06/30 07:27:39;;;;;;;0.32;0.30;;;;;;;24.84;68.95;99521.91;6143527;23;20033;-96
2023/06/30 07:30:06;;;;;;;0.75;0.60;;;;;;;25.05;68.79;99519.19;6116996;23;20010;-96
2023/06/30 07:32:33;;;;;;;0.00;0.00;;;;;;;25.11;67.49;99497.13;6118204;23;20013;-96
2023/06/30 07:34:59;;;;;;;0.85;0.85;;;;;;;25.54;67.69;99530.72;6116462;23;20009;-96
2023/06/30 07:53:31;;;;;;;0.80;0.52;;;;;;;25.54;61.38;99485.28;6181134;23;20053;-96
2023/06/30 07:55:57;;;;;;;0.35;0.30;;;;;;;25.97;60.08;99530.16;6132380;23;20091;-95
2023/06/30 07:58:23;;;;;;;0.30;0.30;;;;;;;25.90;57.25;99525.94;6131732;23;20010;-96
2023/06/30 08:00:49;;;;;;;2.03;1.08;;;;;;;25.91;58.36;99490.53;6182567;23;19998;-96
2023/06/30 08:37:30;;;;;;;0.75;0.57;;;;;;;27.63;44.86;99481.06;6151921;23;20104;-87
2023/06/30 08:39:55;;;;;;;1.75;0.77;;;;;;;27.96;43.78;99497.03;6077850;23;20448;-88
2023/06/30 08:42:22;;;;;;;1.05;0.95;;;;;;;28.03;42.55;99498.34;6077077;23;20009;-88
2023/06/30 08:44:49;;;;;;;0.40;0.40;;;;;;;28.02;41.88;99497.59;6077826;23;20092;-89
2023/06/30 08:47:15;;;;;;;0.88;0.88;;;;;;;27.36;42.18;99474.94;6077480;23;20460;-87
2023/06/30 08:49:41;;;;;;;0.40;0.40;;;;;;;27.02;43.26;99500.84;6101597;23;20021;-88
2023/06/30 08:52:08;;;;;;;2.13;1.13;;;;;;;27.06;42.75;99486.25;6100985;23;20571;-87
2023/06/30 08:54:34;;;;;;;0.52;0.52;;;;;;;27.19;42.46;99494.63;6125994;23;20088;-87
2023/06/30 08:57:01;;;;;;;6.82;1.48;;;;;;;27.00;43.35;99488.53;6101171;23;20677;-88
2023/06/30 08:59:27;;;;;;;0.73;0.68;;;;;;;27.05;42.63;99453.44;6076838;23;20023;-88
2023/06/30 09:01:54;;;;;;;0.55;0.45;;;;;;;27.45;41.56;99482.94;6121416;23;20018;-88
2023/06/30 09:04:22;;;;;;;0.30;0.30;;;;;;;27.50;41.33;99499.09;6120742;23;20441;-88
2023/06/30 09:06:49;;;;;;;0.73;0.73;;;;;;;27.25;41.66;99486.69;6120303;23;20084;-88
2023/06/30 09:09:35;;;;;;;0.40;0.40;;;;;;;27.42;41.69;99495.44;6071996;23;20033;-88
2023/06/30 09:12:03;;;;;;;0.50;0.40;;;;;;;27.70;42.09;99486.75;6120576;23;20017;-88
2023/06/30 09:14:33;;;;;;;1.08;0.70;;;;;;;28.09;39.67;99504.66;6071848;23;20017;-89
2023/06/30 09:17:02;;;;;;;0.55;0.55;;;;;;;28.28;40.62;99477.25;6120898;23;20396;-89
2023/06/30 09:19:28;;;;;;;0.30;0.30;;;;;;;28.10;39.24;99483.38;6120186;23;20436;-88
2023/06/30 09:21:54;;;;;;;0.32;0.25;;;;;;;28.23;40.57;99492.44;6095812;23;20018;-89
2023/06/30 09:24:20;;;;;;;0.20;0.20;;;;;;;28.67;39.66;99507.16;6095784;23;20061;-88
2023/06/30 09:26:46;;;;;;;0.85;0.80;;;;;;;28.88;38.05;99491.91;6095532;23;20014;-88
2023/06/30 09:29:12;;;;;;;0.93;0.75;;;;;;;28.83;38.99;99470.81;6120131;23;20005;-88
2023/06/30 09:31:39;;;;;;;0.55;0.50;;;;;;;29.03;38.98;99491.84;6121109;23;20052;-88
2023/06/30 09:34:12;;;;;;;0.45;0.40;;;;;;;29.03;37.98;99449.78;6096139;23;20090;-88
2023/06/30 09:36:50;;;;;;;0.47;0.40;;;;;;;29.41;37.47;99477.34;6140425;23;20320;-89
2023/06/30 09:39:16;;;;;;;0.70;0.60;;;;;;;29.34;37.99;99467.50;6100931;23;20379;-88
2023/06/30 09:41:46;;;;;;;0.63;0.63;;;;;;;29.60;37.53;99475.50;6125048;23;20019;-88
2023/06/30 09:44:13;;;;;;;0.38;0.38;;;;;;;29.65;38.21;99491.66;6125294;23;20060;-88
2023/06/30 09:46:50;;;;;;;0.52;0.52;;;;;;;29.67;36.89;99505.38;6125132;23;20025;-88
2023/06/30 09:49:42;;;;;;;0.22;0.22;;;;;;;29.70;37.55;99489.16;6100890;23;20025;-88
2023/06/30 09:52:08;;;;;;;0.30;0.30;;;;;;;29.74;37.83;99483.78;6145722;23;20017;-88
2023/06/30 09:54:35;;;;;;;0.30;0.30;;;;;;;29.64;36.70;99472.25;6125250;23;20017;-88
2023/06/30 09:57:03;;;;;;;0.65;0.65;;;;;;;29.77;37.00;99468.31;6125098;23;20116;-89
2023/06/30 09:59:29;;;;;;;0.32;0.32;;;;;;;29.62;38.07;99495.69;6125925;23;20009;-89
2023/06/30 10:01:55;;;;;;;1.10;0.77;;;;;;;29.77;38.48;99494.03;6150841;23;20022;-89
2023/06/30 10:04:22;;;;;;;0.38;0.38;;;;;;;29.71;37.54;99470.66;6125044;23;20092;-89
2023/06/30 10:06:50;;;;;;;0.50;0.50;;;;;;;29.62;37.35;99492.81;6124951;23;20040;-88
2023/06/30 10:09:16;;;;;;;0.82;0.82;;;;;;;29.15;37.94;99481.50;6124555;23;20017;-89
2023/06/30 10:11:43;;;;;;;0.30;0.30;;;;;;;29.05;38.91;99486.31;6124731;23;20429;-88
2023/06/30 10:14:10;;;;;;;2.38;1.17;;;;;;;29.33;38.37;99485.22;6125607;23;20412;-88
2023/06/30 10:16:36;;;;;;;1.75;1.15;;;;;;;29.39;37.55;99465.75;6076854;23;20022;-88
2023/06/30 10:19:03;;;;;;;2.80;0.88;;;;;;;29.38;38.85;99455.66;6125331;23;20060;-89
2023/06/30 10:21:28;;;;;;;0.25;0.25;;;;;;;29.13;37.70;99450.66;6100395;23;20013;-89
2023/06/30 10:23:54;;;;;;;0.47;0.47;;;;;;;29.05;38.51;99461.38;6100813;23;20068;-89
2023/06/30 10:26:22;;;;;;;1.33;1.23;;;;;;;29.28;38.98;99481.25;6100769;23;20096;-89
2023/06/30 10:28:48;;;;;;;0.82;0.82;;;;;;;28.60;38.84;99433.00;6138321;23;20014;-96
2023/06/30 10:31:14;;;;;;;0.80;0.80;;;;;;;28.53;38.70;99440.28;6137303;23;20021;-96
2023/06/30 10:33:40;;;;;;;0.50;0.40;;;;;;;29.00;38.47;99438.75;6114451;23;20066;-96
2023/06/30 10:36:06;;;;;;;0.43;0.43;;;;;;;29.05;38.21;99434.91;6112227;23;20061;-96
2023/06/30 10:38:32;;;;;;;0.30;0.30;;;;;;;29.43;37.95;99475.44;6140770;23;20018;-96
2023/06/30 10:41:16;;;;;;;1.58;0.77;;;;;;;29.25;38.64;99424.50;6096796;23;20010;-96
2023/06/30 10:44:07;;;;;;;2.05;1.40;;;;;;;29.91;37.13;99458.13;6168061;23;20033;-96
2023/06/30 10:46:53;;;;;;;0.55;0.55;;;;;;;29.16;38.44;99411.59;6168984;23;20017;-96
2023/06/30 10:49:25;;;;;;;1.30;0.95;;;;;;;29.51;37.53;99455.38;6142234;23;20010;-96
2023/06/30 10:51:51;;;;;;;0.30;0.30;;;;;;;29.15;38.22;99413.72;6142598;23;20074;-96
2023/06/30 10:54:27;;;;;;;1.25;0.60;;;;;;;29.50;38.55;99419.56;6143341;23;20128;-96
2023/06/30 10:57:14;;;;;;;0.57;0.55;;;;;;;29.86;37.85;99411.28;6145083;23;20048;-96
2023/06/30 10:59:45;;;;;;;0.40;0.40;;;;;;;30.29;38.40;99412.72;6100923;23;20024;-96
2023/06/30 11:02:17;;;;;;;1.10;0.80;;;;;;;29.98;38.02;99440.13;6096978;23;20029;-96
2023/06/30 11:04:46;;;;;;;0.55;0.55;;;;;;;29.88;37.30;99431.47;6172939;23;20013;-96
2023/06/30 11:07:29;;;;;;;0.35;0.35;;;;;;;30.07;37.63;99425.94;6121289;23;20002;-96
2023/06/30 11:09:59;;;;;;;0.30;0.30;;;;;;;29.99;37.53;99447.38;6102878;23;20060;-88
2023/06/30 11:12:27;;;;;;;0.35;0.35;;;;;;;30.30;37.82;99436.38;6101862;23;20028;-88
2023/06/30 11:14:56;;;;;;;0.50;0.50;;;;;;;30.67;37.02;99440.91;6102934;23;20033;-89
2023/06/30 11:17:45;;;;;;;0.60;0.60;;;;;;;30.50;37.52;99440.94;6077912;23;20005;-88
2023/06/30 11:20:11;;;;;;;1.38;0.82;;;;;;;30.34;36.85;99437.47;6125877;23;20021;-89
2023/06/30 11:22:37;;;;;;;0.80;0.80;;;;;;;29.84;38.51;99425.38;6125862;23;20013;-88
2023/06/30 11:25:05;;;;;;;0.45;0.30;;;;;;;30.23;38.54;99417.94;6102974;23;20055;-89
2023/06/30 11:27:31;;;;;;;0.57;0.57;;;;;;;30.29;37.98;99411.97;6126163;23;20023;-89
2023/06/30 11:29:59;;;;;;;0.25;0.25;;;;;;;30.45;36.93;99411.22;6102326;23;20081;-89
2023/06/30 11:32:26;;;;;;;1.17;0.52;;;;;;;30.68;36.79;99413.03;6078056;23;20025;-88
2023/06/30 11:34:52;;;;;;;0.60;0.60;;;;;;;30.76;36.93;99394.41;6102502;23;20503;-89
2023/06/30 11:37:18;;;;;;;0.50;0.50;;;;;;;30.55;37.34;99409.19;6101054;23;20067;-89
2023/06/30 11:39:54;;;;;;;0.73;0.73;;;;;;;30.09;36.99;99400.34;6126803;23;20013;-89
2023/06/30 11:42:20;;;;;;;0.73;0.73;;;;;;;30.05;37.62;99399.25;6101768;23;20096;-89
2023/06/30 11:44:48;;;;;;;1.08;0.90;;;;;;;30.27;37.02;99398.25;6126727;23;20076;-89
2023/06/30 11:47:14;;;;;;;1.00;0.55;;;;;;;30.19;36.84;99403.31;6102104;23;20049;-89
2023/06/30 11:49:40;;;;;;;0.88;0.80;;;;;;;30.43;37.47;99399.63;6101455;23;20132;-88
2023/06/30 11:52:06;;;;;;;0.63;0.63;;;;;;;30.69;37.33;99388.81;6126219;23;20033;-89
2023/06/30 11:54:32;;;;;;;0.85;0.80;;;;;;;30.85;36.82;99367.19;6101894;23;20691;-89
2023/06/30 11:56:58;;;;;;;0.73;0.73;;;;;;;30.48;35.91;99372.84;6077508;23;20009;-88
2023/06/30 11:59:26;;;;;;;0.88;0.50;;;;;;;30.44;36.22;99380.34;6126330;23;20021;-89
2023/06/30 12:01:55;;;;;;;0.52;0.52;;;;;;;30.38;38.00;99380.56;6102216;23;20076;-89
2023/06/30 12:04:21;;;;;;;0.93;0.70;;;;;;;30.49;36.37;99380.06;6077790;23;20507;-89
2023/06/30 12:06:46;;;;;;;3.17;0.73;;;;;;;30.06;36.91;99383.63;6151640;23;20013;-88
2023/06/30 12:09:12;;;;;;;0.68;0.68;;;;;;;30.40;37.44;99372.16;6126266;23;20404;-88
2023/06/30 12:11:45;;;;;;;0.52;0.52;;;;;;;29.93;36.84;99378.22;6102518;23;20006;-89
2023/06/30 12:14:14;;;;;;;0.45;0.35;;;;;;;29.76;38.51;99355.34;6077878;23;20060;-88
2023/06/30 12:16:49;;;;;;;0.47;0.47;;;;;;;30.09;37.67;99354.59;6126799;23;20037;-89
2023/06/30 12:19:15;;;;;;;0.93;0.60;;;;;;;30.06;36.97;99367.22;6101592;23;20022;-88
2023/06/30 12:21:51;;;;;;;1.17;0.85;;;;;;;30.30;36.66;99351.28;6125868;23;20056;-88
2023/06/30 12:24:18;;;;;;;1.55;1.02;;;;;;;30.24;36.80;99364.34;6101521;23;20064;-89
2023/06/30 12:26:44;;;;;;;1.00;1.00;;;;;;;30.61;36.82;99368.13;6151964;23;20006;-88
2023/06/30 12:29:10;;;;;;;0.43;0.43;;;;;;;30.75;35.42;99361.41;6126049;23;20340;-89
2023/06/30 12:31:35;;;;;;;1.13;1.05;;;;;;;30.93;35.70;99350.66;6152360;23;20010;-88
2023/06/30 12:34:02;;;;;;;4.38;1.75;;;;;;;31.02;35.17;99365.03;6151987;23;20017;-89
2023/06/30 12:36:28;;;;;;;1.00;0.88;;;;;;;31.20;36.11;99365.72;6100939;23;20024;-88
2023/06/30 12:38:54;;;;;;;0.32;0.32;;;;;;;31.34;35.75;99357.50;6126431;23;20113;-88
2023/06/30 12:41:20;;;;;;;0.75;0.75;;;;;;;31.20;36.24;99354.28;6100997;23;20009;-89
2023/06/30 12:43:45;;;;;;;0.95;0.93;;;;;;;31.22;35.83;99348.69;6151693;23;20428;-89
2023/06/30 12:46:11;;;;;;;0.70;0.70;;;;;;;31.24;35.97;99343.13;6101205;23;20463;-88
2023/06/30 12:48:36;;;;;;;1.25;1.13;;;;;;;31.38;36.21;99347.06;6100925;23;20376;-89
2023/06/30 12:51:02;;;;;;;1.05;0.73;;;;;;;31.43;35.32;99353.88;6101292;23;20013;-89
2023/06/30 12:53:27;;;;;;;0.85;0.77;;;;;;;31.48;34.70;99339.28;6100904;23;20092;-89
2023/06/30 12:55:53;;;;;;;0.55;0.55;;;;;;;31.41;34.58;99334.44;6101347;23;20013;-89
2023/06/30 12:58:18;;;;;;;0.95;0.95;;;;;;;31.08;35.55;99341.09;6124994;23;20042;-88
2023/06/30 13:00:44;;;;;;;0.63;0.63;;;;;;;31.01;35.31;99339.88;6125715;23;20017;-88
2023/06/30 13:03:10;;;;;;;1.60;1.05;;;;;;;31.15;35.54;99323.03;6077224;23;20076;-88
2023/06/30 13:05:36;;;;;;;0.60;0.60;;;;;;;31.19;36.08;99324.09;6076104;23;20444;-88
2023/06/30 13:08:02;;;;;;;1.00;0.80;;;;;;;30.80;36.56;99322.41;6101093;23;20120;-88
2023/06/30 13:10:28;;;;;;;0.43;0.32;;;;;;;30.74;36.70;99324.78;6125586;23;20041;-88
2023/06/30 13:12:53;;;;;;;0.43;0.40;;;;;;;31.07;36.50;99320.28;6101164;23;20020;-89
2023/06/30 13:15:19;;;;;;;0.45;0.40;;;;;;;31.01;35.74;99308.38;6100949;23;20010;-89
2023/06/30 13:17:47;;;;;;;0.40;0.40;;;;;;;31.05;35.27;99308.69;6103807;23;20009;-96
2023/06/30 13:20:13;;;;;;;0.68;0.68;;;;;;;30.50;35.58;99284.28;6140786;23;20426;-96
2023/06/30 13:22:39;;;;;;;0.70;0.60;;;;;;;30.41;36.10;99284.97;6166239;23;20037;-96